sensor_id;sensor_type;location;lat;lon;timestamp;pressure;altitude;pressure_sealevel;temperature
74321;BMP280;62738;45.772;4.804;2023-07-20T00:01:01;99725.13;;;24.78
74321;BMP280;62738;45.772;4.804;2023-07-20T00:03:27;99727.03;;;24.97
74321;BMP280;62738;45.772;4.804;2023-07-20T00:05:54;99733.47;;;24.99
74321;BMP280;62738;45.772;4.804;2023-07-20T00:08:21;99733.31;;;25.23
74321;BMP280;62738;45.772;4.804;2023-07-20T00:10:48;99738.75;;;25.13
74321;BMP280;62738;45.772;4.804;2023-07-20T00:13:14;99736.50;;;25.07
74321;BMP280;62738;45.772;4.804;2023-07-20T00:15:42;99737.56;;;24.65
74321;BMP280;62738;45.772;4.804;2023-07-20T00:18:09;99739.25;;;24.48
74321;BMP280;62738;45.772;4.804;2023-07-20T00:20:35;99736.59;;;24.54
74321;BMP280;62738;45.772;4.804;2023-07-20T00:23:02;99734.88;;;24.71
74321;BMP280;62738;45.772;4.804;2023-07-20T00:25:29;99728.41;;;24.66
74321;BMP280;62738;45.772;4.804;2023-07-20T00:27:55;99730.97;;;24.56
74321;BMP280;62738;45.772;4.804;2023-07-20T00:30:22;99731.28;;;24.68
74321;BMP280;62738;45.772;4.804;2023-07-20T00:32:49;99731.94;;;24.94
74321;BMP280;62738;45.772;4.804;2023-07-20T00:35:16;99723.56;;;25.00
74321;BMP280;62738;45.772;4.804;2023-07-20T00:37:42;99735.09;;;25.08
74321;BMP280;62738;45.772;4.804;2023-07-20T00:40:09;99730.72;;;25.03
74321;BMP280;62738;45.772;4.804;2023-07-20T00:42:36;99728.72;;;25.08
74321;BMP280;62738;45.772;4.804;2023-07-20T00:45:03;99724.91;;;25.27
74321;BMP280;62738;45.772;4.804;2023-07-20T00:47:30;99731.16;;;25.22
74321;BMP280;62738;45.772;4.804;2023-07-20T00:49:56;99734.28;;;25.36
74321;BMP280;62738;45.772;4.804;2023-07-20T00:52:25;99724.13;;;25.25
74321;BMP280;62738;45.772;4.804;2023-07-20T00:54:52;99721.44;;;25.33
74321;BMP280;62738;45.772;4.804;2023-07-20T00:57:19;99723.78;;;25.42
74321;BMP280;62738;45.772;4.804;2023-07-20T00:59:45;99729.06;;;25.56
74321;BMP280;62738;45.772;4.804;2023-07-20T01:02:12;99723.47;;;25.60
74321;BMP280;62738;45.772;4.804;2023-07-20T01:04:39;99727.13;;;25.64
74321;BMP280;62738;45.772;4.804;2023-07-20T01:07:20;99727.72;;;25.59
74321;BMP280;62738;45.772;4.804;2023-07-20T01:10:04;99728.72;;;25.40
74321;BMP280;62738;45.772;4.804;2023-07-20T01:12:36;99723.03;;;25.08
74321;BMP280;62738;45.772;4.804;2023-07-20T01:15:07;99719.38;;;25.03
74321;BMP280;62738;45.772;4.804;2023-07-20T01:17:35;99715.66;;;25.27
74321;BMP280;62738;45.772;4.804;2023-07-20T01:20:02;99714.34;;;25.02
74321;BMP280;62738;45.772;4.804;2023-07-20T01:22:47;99717.25;;;25.04
74321;BMP280;62738;45.772;4.804;2023-07-20T01:31:25;99716.22;;;24.62
74321;BMP280;62738;45.772;4.804;2023-07-20T01:33:55;99726.34;;;24.71
74321;BMP280;62738;45.772;4.804;2023-07-20T01:36:23;99710.28;;;24.79
74321;BMP280;62738;45.772;4.804;2023-07-20T01:38:52;99714.81;;;24.90
74321;BMP280;62738;45.772;4.804;2023-07-20T01:41:19;99710.38;;;24.83
74321;BMP280;62738;45.772;4.804;2023-07-20T01:43:46;99713.63;;;25.01
74321;BMP280;62738;45.772;4.804;2023-07-20T01:46:12;99704.66;;;25.11
74321;BMP280;62738;45.772;4.804;2023-07-20T01:48:39;99706.69;;;25.08
74321;BMP280;62738;45.772;4.804;2023-07-20T01:51:06;99705.31;;;25.09
74321;BMP280;62738;45.772;4.804;2023-07-20T01:53:32;99709.88;;;25.23
74321;BMP280;62738;45.772;4.804;2023-07-20T01:55:59;99711.50;;;25.32
74321;BMP280;62738;45.772;4.804;2023-07-20T01:58:26;99708.69;;;25.34
74321;BMP280;62738;45.772;4.804;2023-07-20T02:00:53;99711.00;;;25.41
74321;BMP280;62738;45.772;4.804;2023-07-20T02:03:19;99715.97;;;25.41
74321;BMP280;62738;45.772;4.804;2023-07-20T02:05:48;99708.78;;;25.38
74321;BMP280;62738;45.772;4.804;2023-07-20T02:08:16;99705.88;;;25.36
74321;BMP280;62738;45.772;4.804;2023-07-20T02:10:45;99710.09;;;25.33
74321;BMP280;62738;45.772;4.804;2023-07-20T02:13:12;99700.09;;;25.30
74321;BMP280;62738;45.772;4.804;2023-07-20T02:15:38;99702.94;;;25.30
74321;BMP280;62738;45.772;4.804;2023-07-20T02:18:05;99698.09;;;25.36
74321;BMP280;62738;45.772;4.804;2023-07-20T02:20:32;99705.66;;;25.24
74321;BMP280;62738;45.772;4.804;2023-07-20T02:22:58;99699.09;;;25.17
74321;BMP280;62738;45.772;4.804;2023-07-20T02:25:25;99701.13;;;25.12
74321;BMP280;62738;45.772;4.804;2023-07-20T02:27:52;99705.34;;;25.11
74321;BMP280;62738;45.772;4.804;2023-07-20T02:30:18;99699.94;;;25.22
74321;BMP280;62738;45.772;4.804;2023-07-20T02:32:45;99708.34;;;25.18
74321;BMP280;62738;45.772;4.804;2023-07-20T02:35:15;99707.72;;;25.21
74321;BMP280;62738;45.772;4.804;2023-07-20T02:37:43;99704.88;;;25.21
74321;BMP280;62738;45.772;4.804;2023-07-20T02:40:10;99709.97;;;25.27
74321;BMP280;62738;45.772;4.804;2023-07-20T02:42:37;99711.31;;;25.24
74321;BMP280;62738;45.772;4.804;2023-07-20T02:45:04;99710.78;;;25.31
74321;BMP280;62738;45.772;4.804;2023-07-20T02:47:31;99712.84;;;25.29
74321;BMP280;62738;45.772;4.804;2023-07-20T02:49:58;99705.75;;;25.28
74321;BMP280;62738;45.772;4.804;2023-07-20T02:52:25;99704.09;;;25.19
74321;BMP280;62738;45.772;4.804;2023-07-20T02:54:52;99706.13;;;25.14
74321;BMP280;62738;45.772;4.804;2023-07-20T02:57:18;99701.19;;;25.15
74321;BMP280;62738;45.772;4.804;2023-07-20T02:59:45;99699.88;;;25.20
74321;BMP280;62738;45.772;4.804;2023-07-20T03:02:11;99695.50;;;25.15
74321;BMP280;62738;45.772;4.804;2023-07-20T03:04:38;99697.00;;;25.18
74321;BMP280;62738;45.772;4.804;2023-07-20T03:07:05;99695.66;;;25.21
74321;BMP280;62738;45.772;4.804;2023-07-20T03:09:32;99706.47;;;25.30
74321;BMP280;62738;45.772;4.804;2023-07-20T03:11:58;99706.38;;;25.24
74321;BMP280;62738;45.772;4.804;2023-07-20T03:14:25;99699.84;;;25.18
74321;BMP280;62738;45.772;4.804;2023-07-20T03:16:52;99701.13;;;25.12
74321;BMP280;62738;45.772;4.804;2023-07-20T03:19:18;99701.66;;;25.05
74321;BMP280;62738;45.772;4.804;2023-07-20T03:21:45;99695.28;;;25.04
74321;BMP280;62738;45.772;4.804;2023-07-20T03:24:12;99689.59;;;25.04
74321;BMP280;62738;45.772;4.804;2023-07-20T03:26:38;99695.31;;;25.06
74321;BMP280;62738;45.772;4.804;2023-07-20T03:29:05;99694.72;;;25.12
74321;BMP280;62738;45.772;4.804;2023-07-20T03:31:33;99692.66;;;25.15
74321;BMP280;62738;45.772;4.804;2023-07-20T03:33:59;99689.28;;;24.90
74321;BMP280;62738;45.772;4.804;2023-07-20T03:36:26;99691.94;;;24.84
74321;BMP280;62738;45.772;4.804;2023-07-20T03:38:53;99693.38;;;24.85
74321;BMP280;62738;45.772;4.804;2023-07-20T03:41:19;99691.16;;;24.82
74321;BMP280;62738;45.772;4.804;2023-07-20T03:43:48;99689.41;;;24.67
74321;BMP280;62738;45.772;4.804;2023-07-20T03:46:15;99689.66;;;24.77
74321;BMP280;62738;45.772;4.804;2023-07-20T03:48:42;99694.50;;;24.72
74321;BMP280;62738;45.772;4.804;2023-07-20T03:51:09;99697.72;;;24.58
74321;BMP280;62738;45.772;4.804;2023-07-20T03:53:35;99692.09;;;24.61
74321;BMP280;62738;45.772;4.804;2023-07-20T03:56:02;99701.09;;;24.53
74321;BMP280;62738;45.772;4.804;2023-07-20T03:58:29;99702.63;;;24.56
74321;BMP280;62738;45.772;4.804;2023-07-20T04:00:58;99694.41;;;24.68
74321;BMP280;62738;45.772;4.804;2023-07-20T04:03:24;99690.06;;;24.65
74321;BMP280;62738;45.772;4.804;2023-07-20T04:05:54;99703.13;;;24.78
74321;BMP280;62738;45.772;4.804;2023-07-20T04:08:23;99709.78;;;24.31
74321;BMP280;62738;45.772;4.804;2023-07-20T04:10:50;99704.25;;;24.37
74321;BMP280;62738;45.772;4.804;2023-07-20T04:13:17;99705.09;;;24.16
74321;BMP280;62738;45.772;4.804;2023-07-20T04:15:44;99698.50;;;24.08
74321;BMP280;62738;45.772;4.804;2023-07-20T04:18:11;99690.16;;;24.14
74321;BMP280;62738;45.772;4.804;2023-07-20T04:20:38;99699.59;;;24.22
74321;BMP280;62738;45.772;4.804;2023-07-20T04:23:04;99691.41;;;24.34
74321;BMP280;62738;45.772;4.804;2023-07-20T04:25:31;99687.38;;;24.43
74321;BMP280;62738;45.772;4.804;2023-07-20T04:28:09;99695.50;;;24.55
74321;BMP280;62738;45.772;4.804;2023-07-20T04:30:37;99695.63;;;24.61
74321;BMP280;62738;45.772;4.804;2023-07-20T04:33:03;99706.25;;;24.61
74321;BMP280;62738;45.772;4.804;2023-07-20T04:35:48;99695.84;;;24.69
74321;BMP280;62738;45.772;4.804;2023-07-20T04:38:15;99698.81;;;24.75
74321;BMP280;62738;45.772;4.804;2023-07-20T04:40:45;99701.28;;;24.89
74321;BMP280;62738;45.772;4.804;2023-07-20T04:43:13;99697.16;;;24.94
74321;BMP280;62738;45.772;4.804;2023-07-20T04:45:39;99690.97;;;25.03
74321;BMP280;62738;45.772;4.804;2023-07-20T04:48:11;99687.06;;;24.87
74321;BMP280;62738;45.772;4.804;2023-07-20T04:50:40;99689.22;;;24.88
74321;BMP280;62738;45.772;4.804;2023-07-20T04:53:08;99681.56;;;24.95
74321;BMP280;62738;45.772;4.804;2023-07-20T04:55:37;99683.81;;;25.00
74321;BMP280;62738;45.772;4.804;2023-07-20T04:58:04;99683.91;;;25.04
74321;BMP280;62738;45.772;4.804;2023-07-20T05:00:35;99692.81;;;25.21
74321;BMP280;62738;45.772;4.804;2023-07-20T05:03:01;99685.72;;;25.22
74321;BMP280;62738;45.772;4.804;2023-07-20T05:05:28;99679.16;;;24.83
74321;BMP280;62738;45.772;4.804;2023-07-20T05:07:55;99686.88;;;24.51
74321;BMP280;62738;45.772;4.804;2023-07-20T05:10:22;99692.38;;;24.45
74321;BMP280;62738;45.772;4.804;2023-07-20T05:12:48;99680.59;;;24.27
74321;BMP280;62738;45.772;4.804;2023-07-20T05:15:15;99683.69;;;24.11
74321;BMP280;62738;45.772;4.804;2023-07-20T05:17:41;99684.56;;;24.18
74321;BMP280;62738;45.772;4.804;2023-07-20T05:20:08;99669.13;;;24.23
74321;BMP280;62738;45.772;4.804;2023-07-20T05:22:36;99679.13;;;24.26
74321;BMP280;62738;45.772;4.804;2023-07-20T05:25:10;99680.13;;;24.11
74321;BMP280;62738;45.772;4.804;2023-07-20T05:27:38;99669.19;;;24.25
74321;BMP280;62738;45.772;4.804;2023-07-20T05:30:06;99668.63;;;24.30
74321;BMP280;62738;45.772;4.804;2023-07-20T05:32:33;99677.88;;;24.05
74321;BMP280;62738;45.772;4.804;2023-07-20T05:35:00;99665.53;;;24.20
74321;BMP280;62738;45.772;4.804;2023-07-20T05:37:27;99668.00;;;24.34
74321;BMP280;62738;45.772;4.804;2023-07-20T05:39:54;99671.41;;;24.56
74321;BMP280;62738;45.772;4.804;2023-07-20T05:42:20;99667.41;;;24.67
74321;BMP280;62738;45.772;4.804;2023-07-20T05:44:47;99663.53;;;24.82
74321;BMP280;62738;45.772;4.804;2023-07-20T05:47:14;99668.16;;;24.97
74321;BMP280;62738;45.772;4.804;2023-07-20T05:49:41;99673.41;;;25.11
74321;BMP280;62738;45.772;4.804;2023-07-20T05:52:07;99672.47;;;25.00
74321;BMP280;62738;45.772;4.804;2023-07-20T05:54:34;99675.22;;;24.96
74321;BMP280;62738;45.772;4.804;2023-07-20T05:57:01;99669.31;;;24.86
74321;BMP280;62738;45.772;4.804;2023-07-20T05:59:28;99672.88;;;24.87
74321;BMP280;62738;45.772;4.804;2023-07-20T06:01:58;99661.16;;;24.73
74321;BMP280;62738;45.772;4.804;2023-07-20T06:04:24;99664.25;;;24.83
74321;BMP280;62738;45.772;4.804;2023-07-20T06:06:51;99665.31;;;24.68
74321;BMP280;62738;45.772;4.804;2023-07-20T06:09:18;99663.22;;;24.70
74321;BMP280;62738;45.772;4.804;2023-07-20T06:11:45;99654.75;;;24.72
74321;BMP280;62738;45.772;4.804;2023-07-20T06:14:12;99657.41;;;24.64
74321;BMP280;62738;45.772;4.804;2023-07-20T06:16:38;99650.47;;;24.69
74321;BMP280;62738;45.772;4.804;2023-07-20T06:19:05;99670.44;;;24.75
74321;BMP280;62738;45.772;4.804;2023-07-20T06:21:32;99669.66;;;25.02
74321;BMP280;62738;45.772;4.804;2023-07-20T06:23:58;99658.72;;;24.89
74321;BMP280;62738;45.772;4.804;2023-07-20T06:26:25;99658.38;;;24.75
74321;BMP280;62738;45.772;4.804;2023-07-20T06:28:52;99650.69;;;24.79
74321;BMP280;62738;45.772;4.804;2023-07-20T06:31:19;99653.53;;;24.79
74321;BMP280;62738;45.772;4.804;2023-07-20T06:33:46;99653.88;;;24.93
74321;BMP280;62738;45.772;4.804;2023-07-20T06:36:13;99647.72;;;25.05
74321;BMP280;62738;45.772;4.804;2023-07-20T06:38:39;99646.69;;;25.22
74321;BMP280;62738;45.772;4.804;2023-07-20T06:41:07;99652.00;;;25.38
74321;BMP280;62738;45.772;4.804;2023-07-20T06:43:36;99646.44;;;25.44
74321;BMP280;62738;45.772;4.804;2023-07-20T06:46:06;99645.09;;;25.49
74321;BMP280;62738;45.772;4.804;2023-07-20T06:48:32;99648.03;;;25.53
74321;BMP280;62738;45.772;4.804;2023-07-20T06:51:20;99657.06;;;25.43
74321;BMP280;62738;45.772;4.804;2023-07-20T06:53:47;99648.88;;;25.59
74321;BMP280;62738;45.772;4.804;2023-07-20T06:56:14;99650.50;;;25.68
74321;BMP280;62738;45.772;4.804;2023-07-20T06:58:40;99640.22;;;25.89
74321;BMP280;62738;45.772;4.804;2023-07-20T07:01:08;99641.31;;;25.72
74321;BMP280;62738;45.772;4.804;2023-07-20T07:03:35;99639.91;;;25.73
74321;BMP280;62738;45.772;4.804;2023-07-20T07:06:01;99643.59;;;25.80
74321;BMP280;62738;45.772;4.804;2023-07-20T07:08:28;99651.91;;;25.69
74321;BMP280;62738;45.772;4.804;2023-07-20T07:10:55;99645.31;;;25.97
74321;BMP280;62738;45.772;4.804;2023-07-20T07:13:21;99644.13;;;26.08
74321;BMP280;62738;45.772;4.804;2023-07-20T07:15:50;99646.44;;;26.19
74321;BMP280;62738;45.772;4.804;2023-07-20T07:18:17;99642.66;;;26.47
74321;BMP280;62738;45.772;4.804;2023-07-20T07:20:51;99641.28;;;26.50
74321;BMP280;62738;45.772;4.804;2023-07-20T07:23:18;99642.94;;;26.67
74321;BMP280;62738;45.772;4.804;2023-07-20T07:25:45;99642.97;;;26.69
74321;BMP280;62738;45.772;4.804;2023-07-20T07:28:12;99644.75;;;26.04
74321;BMP280;62738;45.772;4.804;2023-07-20T07:30:39;99646.97;;;26.08
74321;BMP280;62738;45.772;4.804;2023-07-20T07:33:06;99641.84;;;26.00
74321;BMP280;62738;45.772;4.804;2023-07-20T07:35:32;99638.84;;;25.92
74321;BMP280;62738;45.772;4.804;2023-07-20T07:37:59;99644.41;;;25.84
74321;BMP280;62738;45.772;4.804;2023-07-20T07:40:46;99644.19;;;26.12
74321;BMP280;62738;45.772;4.804;2023-07-20T07:43:13;99639.41;;;26.24
74321;BMP280;62738;45.772;4.804;2023-07-20T07:45:40;99632.97;;;26.22
74321;BMP280;62738;45.772;4.804;2023-07-20T07:48:07;99632.47;;;26.34
74321;BMP280;62738;45.772;4.804;2023-07-20T07:50:34;99636.59;;;26.24
74321;BMP280;62738;45.772;4.804;2023-07-20T07:53:01;99630.50;;;26.02
74321;BMP280;62738;45.772;4.804;2023-07-20T07:55:28;99626.63;;;25.84
74321;BMP280;62738;45.772;4.804;2023-07-20T07:57:55;99629.50;;;25.86
74321;BMP280;62738;45.772;4.804;2023-07-20T08:00:21;99631.00;;;26.31
74321;BMP280;62738;45.772;4.804;2023-07-20T08:02:50;99637.25;;;26.21
74321;BMP280;62738;45.772;4.804;2023-07-20T08:05:17;99637.63;;;26.03
74321;BMP280;62738;45.772;4.804;2023-07-20T08:07:44;99615.25;;;25.84
74321;BMP280;62738;45.772;4.804;2023-07-20T08:10:11;99616.09;;;25.90
74321;BMP280;62738;45.772;4.804;2023-07-20T08:12:37;99619.13;;;26.02
74321;BMP280;62738;45.772;4.804;2023-07-20T08:15:04;99620.72;;;26.11
74321;BMP280;62738;45.772;4.804;2023-07-20T08:17:31;99613.63;;;26.12
74321;BMP280;62738;45.772;4.804;2023-07-20T08:19:58;99614.25;;;26.07
74321;BMP280;62738;45.772;4.804;2023-07-20T08:22:25;99606.63;;;26.17
74321;BMP280;62738;45.772;4.804;2023-07-20T08:24:52;99602.56;;;26.33
74321;BMP280;62738;45.772;4.804;2023-07-20T08:27:19;99609.31;;;26.55
74321;BMP280;62738;45.772;4.804;2023-07-20T08:29:45;99606.97;;;26.40
74321;BMP280;62738;45.772;4.804;2023-07-20T08:32:12;99604.13;;;26.40
74321;BMP280;62738;45.772;4.804;2023-07-20T08:34:42;99608.78;;;26.67
74321;BMP280;62738;45.772;4.804;2023-07-20T08:37:08;99597.00;;;26.89
74321;BMP280;62738;45.772;4.804;2023-07-20T08:39:36;99597.81;;;26.95
74321;BMP280;62738;45.772;4.804;2023-07-20T08:42:04;99596.47;;;27.02
74321;BMP280;62738;45.772;4.804;2023-07-20T08:44:33;99595.13;;;27.07
74321;BMP280;62738;45.772;4.804;2023-07-20T08:47:01;99599.28;;;27.00
74321;BMP280;62738;45.772;4.804;2023-07-20T08:49:33;99598.56;;;26.98
74321;BMP280;62738;45.772;4.804;2023-07-20T08:52:00;99590.66;;;26.94
74321;BMP280;62738;45.772;4.804;2023-07-20T08:54:30;99584.47;;;27.10
74321;BMP280;62738;45.772;4.804;2023-07-20T08:57:03;99591.56;;;27.07
74321;BMP280;62738;45.772;4.804;2023-07-20T08:59:30;99585.63;;;26.91
74321;BMP280;62738;45.772;4.804;2023-07-20T09:01:59;99579.31;;;26.96
74321;BMP280;62738;45.772;4.804;2023-07-20T09:04:26;99593.44;;;26.88
74321;BMP280;62738;45.772;4.804;2023-07-20T09:06:53;99583.00;;;27.07
74321;BMP280;62738;45.772;4.804;2023-07-20T09:09:19;99571.97;;;26.79
74321;BMP280;62738;45.772;4.804;2023-07-20T09:11:49;99579.94;;;26.89
74321;BMP280;62738;45.772;4.804;2023-07-20T09:14:16;99575.72;;;26.94
74321;BMP280;62738;45.772;4.804;2023-07-20T09:16:54;99591.31;;;26.89
74321;BMP280;62738;45.772;4.804;2023-07-20T09:19:21;99571.53;;;27.01
74321;BMP280;62738;45.772;4.804;2023-07-20T09:21:49;99574.53;;;27.13
74321;BMP280;62738;45.772;4.804;2023-07-20T09:24:20;99577.25;;;27.03
74321;BMP280;62738;45.772;4.804;2023-07-20T09:26:48;99569.34;;;26.95
74321;BMP280;62738;45.772;4.804;2023-07-20T09:29:18;99573.03;;;27.06
74321;BMP280;62738;45.772;4.804;2023-07-20T09:32:04;99563.81;;;27.09
74321;BMP280;62738;45.772;4.804;2023-07-20T09:34:31;99568.09;;;27.12
74321;BMP280;62738;45.772;4.804;2023-07-20T09:37:01;99562.19;;;26.94
74321;BMP280;62738;45.772;4.804;2023-07-20T09:39:29;99553.81;;;27.06
74321;BMP280;62738;45.772;4.804;2023-07-20T09:42:00;99549.88;;;27.33
74321;BMP280;62738;45.772;4.804;2023-07-20T09:44:29;99552.91;;;27.54
74321;BMP280;62738;45.772;4.804;2023-07-20T09:46:59;99563.00;;;27.67
74321;BMP280;62738;45.772;4.804;2023-07-20T09:49:28;99562.72;;;27.38
74321;BMP280;62738;45.772;4.804;2023-07-20T09:51:58;99548.59;;;27.53
74321;BMP280;62738;45.772;4.804;2023-07-20T09:54:27;99544.34;;;27.54
74321;BMP280;62738;45.772;4.804;2023-07-20T09:56:55;99535.88;;;27.62
74321;BMP280;62738;45.772;4.804;2023-07-20T09:59:22;99541.38;;;27.40
74321;BMP280;62738;45.772;4.804;2023-07-20T10:01:49;99535.00;;;27.45
74321;BMP280;62738;45.772;4.804;2023-07-20T10:04:18;99535.38;;;27.11
74321;BMP280;62738;45.772;4.804;2023-07-20T10:06:49;99533.97;;;27.16
74321;BMP280;62738;45.772;4.804;2023-07-20T10:09:17;99525.84;;;26.89
74321;BMP280;62738;45.772;4.804;2023-07-20T10:11:48;99532.94;;;26.90
74321;BMP280;62738;45.772;4.804;2023-07-20T10:14:40;99527.06;;;27.33
74321;BMP280;62738;45.772;4.804;2023-07-20T10:17:11;99517.28;;;27.55
74321;BMP280;62738;45.772;4.804;2023-07-20T10:19:43;99532.97;;;27.56
74321;BMP280;62738;45.772;4.804;2023-07-20T10:22:25;99518.56;;;27.37
74321;BMP280;62738;45.772;4.804;2023-07-20T10:24:53;99520.31;;;27.73
74321;BMP280;62738;45.772;4.804;2023-07-20T10:27:20;99522.53;;;27.86
74321;BMP280;62738;45.772;4.804;2023-07-20T10:29:48;99511.59;;;27.55
74321;BMP280;62738;45.772;4.804;2023-07-20T10:32:15;99509.63;;;27.73
74321;BMP280;62738;45.772;4.804;2023-07-20T10:34:42;99506.47;;;27.43
74321;BMP280;62738;45.772;4.804;2023-07-20T10:37:08;99511.59;;;27.57
74321;BMP280;62738;45.772;4.804;2023-07-20T10:39:35;99506.91;;;27.91
74321;BMP280;62738;45.772;4.804;2023-07-20T10:42:09;99502.09;;;28.20
74321;BMP280;62738;45.772;4.804;2023-07-20T10:44:38;99506.28;;;28.03
74321;BMP280;62738;45.772;4.804;2023-07-20T10:47:10;99497.19;;;28.31
74321;BMP280;62738;45.772;4.804;2023-07-20T10:49:57;99495.03;;;28.27
74321;BMP280;62738;45.772;4.804;2023-07-20T10:52:24;99517.66;;;27.99
74321;BMP280;62738;45.772;4.804;2023-07-20T10:54:51;99509.13;;;28.05
74321;BMP280;62738;45.772;4.804;2023-07-20T10:57:23;99504.94;;;28.18
74321;BMP280;62738;45.772;4.804;2023-07-20T10:59:50;99487.94;;;28.38
74321;BMP280;62738;45.772;4.804;2023-07-20T11:02:18;99489.38;;;28.37
74321;BMP280;62738;45.772;4.804;2023-07-20T11:04:47;99495.13;;;28.47
74321;BMP280;62738;45.772;4.804;2023-07-20T11:07:16;99479.47;;;28.56
74321;BMP280;62738;45.772;4.804;2023-07-20T11:09:44;99478.06;;;28.60
74321;BMP280;62738;45.772;4.804;2023-07-20T11:12:17;99473.03;;;28.54
74321;BMP280;62738;45.772;4.804;2023-07-20T11:14:55;99465.22;;;28.65
74321;BMP280;62738;45.772;4.804;2023-07-20T11:17:32;99475.31;;;28.86
74321;BMP280;62738;45.772;4.804;2023-07-20T11:20:00;99469.56;;;28.84
74321;BMP280;62738;45.772;4.804;2023-07-20T11:22:33;99471.00;;;28.87
74321;BMP280;62738;45.772;4.804;2023-07-20T11:25:00;99458.91;;;28.88
74321;BMP280;62738;45.772;4.804;2023-07-20T11:27:26;99453.22;;;29.16
74321;BMP280;62738;45.772;4.804;2023-07-20T11:29:56;99454.66;;;29.30
74321;BMP280;62738;45.772;4.804;2023-07-20T11:32:23;99446.78;;;29.06
74321;BMP280;62738;45.772;4.804;2023-07-20T11:34:51;99454.59;;;28.95
74321;BMP280;62738;45.772;4.804;2023-07-20T11:37:18;99444.59;;;28.92
74321;BMP280;62738;45.772;4.804;2023-07-20T11:39:45;99443.19;;;28.93
74321;BMP280;62738;45.772;4.804;2023-07-20T11:42:13;99443.94;;;29.16
74321;BMP280;62738;45.772;4.804;2023-07-20T11:45:02;99432.50;;;29.12
74321;BMP280;62738;45.772;4.804;2023-07-20T11:47:32;99431.78;;;28.93
74321;BMP280;62738;45.772;4.804;2023-07-20T11:50:03;99427.50;;;29.00
74321;BMP280;62738;45.772;4.804;2023-07-20T11:52:30;99421.06;;;29.08
74321;BMP280;62738;45.772;4.804;2023-07-20T11:54:57;99432.50;;;29.36
74321;BMP280;62738;45.772;4.804;2023-07-20T11:57:24;99421.81;;;29.21
74321;BMP280;62738;45.772;4.804;2023-07-20T11:59:55;99434.63;;;29.42
74321;BMP280;62738;45.772;4.804;2023-07-20T12:02:24;99421.09;;;29.20
74321;BMP280;62738;45.772;4.804;2023-07-20T12:04:54;99418.22;;;29.32
74321;BMP280;62738;45.772;4.804;2023-07-20T12:07:22;99413.91;;;29.33
74321;BMP280;62738;45.772;4.804;2023-07-20T12:10:08;99413.94;;;29.53
74321;BMP280;62738;45.772;4.804;2023-07-20T12:12:43;99421.03;;;29.81
74321;BMP280;62738;45.772;4.804;2023-07-20T12:17:48;99415.28;;;29.91
74321;BMP280;62738;45.772;4.804;2023-07-20T12:22:52;99402.34;;;30.06
74321;BMP280;62738;45.772;4.804;2023-07-20T12:25:18;99391.53;;;30.24
74321;BMP280;62738;45.772;4.804;2023-07-20T12:27:48;99399.44;;;30.22
74321;BMP280;62738;45.772;4.804;2023-07-20T12:30:14;99392.34;;;30.07
74321;BMP280;62738;45.772;4.804;2023-07-20T12:32:41;99393.78;;;29.98
74321;BMP280;62738;45.772;4.804;2023-07-20T12:35:08;99395.81;;;30.25
74321;BMP280;62738;45.772;4.804;2023-07-20T12:37:35;99380.06;;;30.32
74321;BMP280;62738;45.772;4.804;2023-07-20T12:40:02;99374.47;;;30.10
74321;BMP280;62738;45.772;4.804;2023-07-20T12:42:28;99389.41;;;30.21
74321;BMP280;62738;45.772;4.804;2023-07-20T12:44:55;99369.28;;;30.37
74321;BMP280;62738;45.772;4.804;2023-07-20T12:47:22;99376.47;;;30.36
74321;BMP280;62738;45.772;4.804;2023-07-20T12:49:49;99371.50;;;30.30
74321;BMP280;62738;45.772;4.804;2023-07-20T12:52:15;99374.34;;;30.32
74321;BMP280;62738;45.772;4.804;2023-07-20T12:54:42;99366.47;;;30.33
74321;BMP280;62738;45.772;4.804;2023-07-20T12:57:09;99366.41;;;30.43
74321;BMP280;62738;45.772;4.804;2023-07-20T12:59:38;99361.47;;;30.29
74321;BMP280;62738;45.772;4.804;2023-07-20T13:02:05;99359.31;;;30.30
74321;BMP280;62738;45.772;4.804;2023-07-20T13:04:32;99352.00;;;30.57
74321;BMP280;62738;45.772;4.804;2023-07-20T13:06:59;99347.59;;;30.74
74321;BMP280;62738;45.772;4.804;2023-07-20T13:09:26;99345.50;;;30.65
74321;BMP280;62738;45.772;4.804;2023-07-20T13:11:53;99350.44;;;30.74
74321;BMP280;62738;45.772;4.804;2023-07-20T13:14:20;99334.72;;;30.71
74321;BMP280;62738;45.772;4.804;2023-07-20T13:16:46;99338.31;;;30.68
74321;BMP280;62738;45.772;4.804;2023-07-20T13:19:13;99331.75;;;30.83
74321;BMP280;62738;45.772;4.804;2023-07-20T13:21:40;99338.97;;;30.76
74321;BMP280;62738;45.772;4.804;2023-07-20T13:24:06;99331.19;;;30.67
74321;BMP280;62738;45.772;4.804;2023-07-20T13:26:33;99328.34;;;30.61
74321;BMP280;62738;45.772;4.804;2023-07-20T13:29:02;99316.25;;;30.52
74321;BMP280;62738;45.772;4.804;2023-07-20T13:31:29;99329.72;;;30.70
74321;BMP280;62738;45.772;4.804;2023-07-20T13:33:59;99331.72;;;30.85
74321;BMP280;62738;45.772;4.804;2023-07-20T13:36:28;99313.13;;;30.82
74321;BMP280;62738;45.772;4.804;2023-07-20T13:38:56;99308.88;;;30.77
74321;BMP280;62738;45.772;4.804;2023-07-20T13:41:22;99313.75;;;30.93
74321;BMP280;62738;45.772;4.804;2023-07-20T13:43:50;99309.41;;;31.00
74321;BMP280;62738;45.772;4.804;2023-07-20T13:46:17;99310.09;;;31.04
74321;BMP280;62738;45.772;4.804;2023-07-20T13:49:03;99298.75;;;30.90
74321;BMP280;62738;45.772;4.804;2023-07-20T13:51:39;99278.94;;;30.64
74321;BMP280;62738;45.772;4.804;2023-07-20T13:54:07;99281.56;;;30.90
74321;BMP280;62738;45.772;4.804;2023-07-20T13:56:37;99277.81;;;31.08
74321;BMP280;62738;45.772;4.804;2023-07-20T13:59:04;99282.88;;;31.06
74321;BMP280;62738;45.772;4.804;2023-07-20T14:01:32;99277.03;;;31.14
74321;BMP280;62738;45.772;4.804;2023-07-20T14:04:04;99270.97;;;31.42
74321;BMP280;62738;45.772;4.804;2023-07-20T14:06:32;99260.88;;;31.47
74321;BMP280;62738;45.772;4.804;2023-07-20T14:08:59;99269.44;;;31.51
74321;BMP280;62738;45.772;4.804;2023-07-20T14:11:27;99269.63;;;31.37
74321;BMP280;62738;45.772;4.804;2023-07-20T14:13:56;99263.16;;;31.36
74321;BMP280;62738;45.772;4.804;2023-07-20T14:16:25;99259.72;;;31.24
74321;BMP280;62738;45.772;4.804;2023-07-20T14:18:52;99260.59;;;31.10
74321;BMP280;62738;45.772;4.804;2023-07-20T14:21:20;99260.66;;;31.04
74321;BMP280;62738;45.772;4.804;2023-07-20T14:23:49;99259.13;;;31.13
74321;BMP280;62738;45.772;4.804;2023-07-20T14:26:22;99261.16;;;31.23